sensor_id;sensor_type;location;lat;lon;timestamp;P1;durP1;ratioP1;P2;durP2;ratioP2
19537;SDS011;9914;51.008;4.300;2022-09-13T00:00:35;4.43;;;4.00;;
19537;SDS011;9914;51.008;4.300;2022-09-13T00:03:02;6.60;;;3.70;;
19537;SDS011;9914;51.008;4.300;2022-09-13T00:05:28;4.70;;;3.70;;
19537;SDS011;9914;51.008;4.300;2022-09-13T00:07:54;8.77;;;3.87;;
19537;SDS011;9914;51.008;4.300;2022-09-13T00:10:21;4.93;;;3.60;;
19537;SDS011;9914;51.008;4.300;2022-09-13T00:12:47;7.23;;;3.57;;
19537;SDS011;9914;51.008;4.300;2022-09-13T00:15:13;4.17;;;3.27;;
19537;SDS011;9914;51.008;4.300;2022-09-13T00:17:39;4.93;;;3.43;;
19537;SDS011;9914;51.008;4.300;2022-09-13T00:20:05;4.63;;;3.60;;
19537;SDS011;9914;51.008;4.300;2022-09-13T00:22:32;4.93;;;3.40;;
19537;SDS011;9914;51.008;4.300;2022-09-13T00:24:58;4.67;;;3.00;;
19537;SDS011;9914;51.008;4.300;2022-09-13T00:27:24;3.63;;;3.07;;
19537;SDS011;9914;51.008;4.300;2022-09-13T00:29:49;3.27;;;2.97;;
19537;SDS011;9914;51.008;4.300;2022-09-13T00:32:15;3.23;;;3.03;;
19537;SDS011;9914;51.008;4.300;2022-09-13T00:34:41;3.33;;;3.03;;
19537;SDS011;9914;51.008;4.300;2022-09-13T00:37:07;4.43;;;3.00;;
19537;SDS011;9914;51.008;4.300;2022-09-13T00:39:32;4.67;;;2.77;;
19537;SDS011;9914;51.008;4.300;2022-09-13T00:41:58;3.03;;;2.73;;
19537;SDS011;9914;51.008;4.300;2022-09-13T00:47:24;3.63;;;3.27;;
19537;SDS011;9914;51.008;4.300;2022-09-13T00:50:01;5.50;;;3.30;;
19537;SDS011;9914;51.008;4.300;2022-09-13T00:52:43;6.13;;;3.80;;
19537;SDS011;9914;51.008;4.300;2022-09-13T00:55:17;5.00;;;3.53;;
19537;SDS011;9914;51.008;4.300;2022-09-13T00:58:00;6.40;;;3.07;;
19537;SDS011;9914;51.008;4.300;2022-09-13T01:00:29;5.63;;;3.03;;
19537;SDS011;9914;51.008;4.300;2022-09-13T01:02:56;3.30;;;3.00;;
19537;SDS011;9914;51.008;4.300;2022-09-13T01:05:32;4.43;;;3.13;;
19537;SDS011;9914;51.008;4.300;2022-09-13T01:08:03;3.23;;;2.93;;
19537;SDS011;9914;51.008;4.300;2022-09-13T01:10:36;4.97;;;3.10;;
19537;SDS011;9914;51.008;4.300;2022-09-13T01:15:38;4.13;;;2.47;;
19537;SDS011;9914;51.008;4.300;2022-09-13T01:18:04;4.20;;;2.50;;
19537;SDS011;9914;51.008;4.300;2022-09-13T01:20:40;3.77;;;2.50;;
19537;SDS011;9914;51.008;4.300;2022-09-13T01:26:19;2.43;;;2.23;;
19537;SDS011;9914;51.008;4.300;2022-09-13T01:40:01;4.87;;;2.53;;
19537;SDS011;9914;51.008;4.300;2022-09-13T01:47:57;3.00;;;2.70;;
19537;SDS011;9914;51.008;4.300;2022-09-13T01:50:32;2.70;;;2.50;;
19537;SDS011;9914;51.008;4.300;2022-09-13T01:55:38;3.23;;;2.93;;
19537;SDS011;9914;51.008;4.300;2022-09-13T02:01:02;4.23;;;3.10;;
19537;SDS011;9914;51.008;4.300;2022-09-13T02:03:35;3.47;;;2.63;;
19537;SDS011;9914;51.008;4.300;2022-09-13T02:06:05;3.37;;;3.07;;
19537;SDS011;9914;51.008;4.300;2022-09-13T02:08:40;5.20;;;3.10;;
19537;SDS011;9914;51.008;4.300;2022-09-13T02:11:20;3.30;;;2.97;;
19537;SDS011;9914;51.008;4.300;2022-09-13T02:16:46;3.77;;;2.60;;
19537;SDS011;9914;51.008;4.300;2022-09-13T02:22:14;3.63;;;3.33;;
19537;SDS011;9914;51.008;4.300;2022-09-13T02:24:45;5.47;;;3.23;;
19537;SDS011;9914;51.008;4.300;2022-09-13T02:27:17;3.70;;;2.97;;
19537;SDS011;9914;51.008;4.300;2022-09-13T02:29:46;5.00;;;3.30;;
19537;SDS011;9914;51.008;4.300;2022-09-13T02:32:15;6.50;;;3.50;;
19537;SDS011;9914;51.008;4.300;2022-09-13T02:34:53;4.70;;;3.50;;
19537;SDS011;9914;51.008;4.300;2022-09-13T02:37:22;5.00;;;3.30;;
19537;SDS011;9914;51.008;4.300;2022-09-13T02:39:52;3.50;;;3.20;;
19537;SDS011;9914;51.008;4.300;2022-09-13T02:42:25;4.03;;;3.47;;
19537;SDS011;9914;51.008;4.300;2022-09-13T02:45:00;4.73;;;3.47;;
19537;SDS011;9914;51.008;4.300;2022-09-13T02:58:43;3.00;;;2.60;;
19537;SDS011;9914;51.008;4.300;2022-09-13T03:01:10;3.67;;;2.57;;
19537;SDS011;9914;51.008;4.300;2022-09-13T03:03:35;3.33;;;2.90;;
19537;SDS011;9914;51.008;4.300;2022-09-13T03:06:01;3.90;;;3.30;;
19537;SDS011;9914;51.008;4.300;2022-09-13T03:08:27;3.90;;;2.90;;
19537;SDS011;9914;51.008;4.300;2022-09-13T03:11:10;6.87;;;3.20;;
19537;SDS011;9914;51.008;4.300;2022-09-13T03:22:26;4.63;;;3.10;;
19537;SDS011;9914;51.008;4.300;2022-09-13T03:30:55;6.20;;;2.93;;
19537;SDS011;9914;51.008;4.300;2022-09-13T03:33:43;3.23;;;2.83;;
19537;SDS011;9914;51.008;4.300;2022-09-13T03:36:20;3.53;;;2.97;;
19537;SDS011;9914;51.008;4.300;2022-09-13T03:39:00;10.03;;;2.90;;
19537;SDS011;9914;51.008;4.300;2022-09-13T03:41:35;3.30;;;3.00;;
19537;SDS011;9914;51.008;4.300;2022-09-13T03:44:08;4.37;;;3.20;;
19537;SDS011;9914;51.008;4.300;2022-09-13T03:46:42;5.27;;;4.30;;
19537;SDS011;9914;51.008;4.300;2022-09-13T03:49:15;4.37;;;3.97;;
19537;SDS011;9914;51.008;4.300;2022-09-13T03:51:43;5.20;;;4.60;;
19537;SDS011;9914;51.008;4.300;2022-09-13T03:54:16;6.33;;;4.53;;
19537;SDS011;9914;51.008;4.300;2022-09-13T03:59:34;5.10;;;4.60;;
19537;SDS011;9914;51.008;4.300;2022-09-13T04:02:04;6.23;;;4.23;;
19537;SDS011;9914;51.008;4.300;2022-09-13T04:04:31;5.03;;;4.17;;
19537;SDS011;9914;51.008;4.300;2022-09-13T04:06:57;4.50;;;3.83;;
19537;SDS011;9914;51.008;4.300;2022-09-13T04:09:27;4.53;;;4.10;;
19537;SDS011;9914;51.008;4.300;2022-09-13T04:11:53;5.23;;;4.33;;
19537;SDS011;9914;51.008;4.300;2022-09-13T04:14:18;4.43;;;4.03;;
19537;SDS011;9914;51.008;4.300;2022-09-13T04:16:44;5.03;;;4.53;;
19537;SDS011;9914;51.008;4.300;2022-09-13T04:19:10;5.80;;;4.53;;
19537;SDS011;9914;51.008;4.300;2022-09-13T04:21:35;4.87;;;4.07;;
19537;SDS011;9914;51.008;4.300;2022-09-13T04:24:02;4.70;;;4.30;;
19537;SDS011;9914;51.008;4.300;2022-09-13T04:26:27;6.70;;;4.77;;
19537;SDS011;9914;51.008;4.300;2022-09-13T04:28:53;5.20;;;4.20;;
19537;SDS011;9914;51.008;4.300;2022-09-13T04:31:19;5.53;;;4.27;;
19537;SDS011;9914;51.008;4.300;2022-09-13T04:33:44;8.80;;;4.20;;
19537;SDS011;9914;51.008;4.300;2022-09-13T04:36:10;10.37;;;4.83;;
19537;SDS011;9914;51.008;4.300;2022-09-13T04:38:36;6.83;;;4.83;;
19537;SDS011;9914;51.008;4.300;2022-09-13T04:41:01;5.83;;;4.63;;
19537;SDS011;9914;51.008;4.300;2022-09-13T04:43:27;6.03;;;4.60;;
19537;SDS011;9914;51.008;4.300;2022-09-13T04:45:53;5.47;;;4.50;;
19537;SDS011;9914;51.008;4.300;2022-09-13T04:48:19;5.40;;;4.90;;
19537;SDS011;9914;51.008;4.300;2022-09-13T04:50:45;5.37;;;4.47;;
19537;SDS011;9914;51.008;4.300;2022-09-13T04:53:11;5.73;;;4.27;;
19537;SDS011;9914;51.008;4.300;2022-09-13T04:55:38;5.87;;;4.60;;
19537;SDS011;9914;51.008;4.300;2022-09-13T04:58:03;6.40;;;4.37;;
19537;SDS011;9914;51.008;4.300;2022-09-13T05:00:29;11.77;;;5.20;;
19537;SDS011;9914;51.008;4.300;2022-09-13T05:02:56;6.10;;;4.60;;
19537;SDS011;9914;51.008;4.300;2022-09-13T05:05:22;5.30;;;4.80;;
19537;SDS011;9914;51.008;4.300;2022-09-13T05:07:49;7.83;;;4.80;;
19537;SDS011;9914;51.008;4.300;2022-09-13T05:10:15;6.93;;;5.03;;
19537;SDS011;9914;51.008;4.300;2022-09-13T05:12:41;5.57;;;4.77;;
19537;SDS011;9914;51.008;4.300;2022-09-13T05:15:07;8.07;;;4.97;;
19537;SDS011;9914;51.008;4.300;2022-09-13T05:17:33;6.50;;;4.23;;
19537;SDS011;9914;51.008;4.300;2022-09-13T05:19:58;9.27;;;5.07;;
19537;SDS011;9914;51.008;4.300;2022-09-13T05:22:24;5.53;;;5.00;;
19537;SDS011;9914;51.008;4.300;2022-09-13T05:24:50;4.90;;;4.20;;
19537;SDS011;9914;51.008;4.300;2022-09-13T05:27:15;5.30;;;4.60;;
19537;SDS011;9914;51.008;4.300;2022-09-13T05:29:41;6.20;;;4.90;;
19537;SDS011;9914;51.008;4.300;2022-09-13T05:32:07;5.20;;;4.30;;
19537;SDS011;9914;51.008;4.300;2022-09-13T05:34:32;6.77;;;5.07;;
19537;SDS011;9914;51.008;4.300;2022-09-13T05:36:58;6.93;;;5.13;;
19537;SDS011;9914;51.008;4.300;2022-09-13T05:39:23;5.80;;;5.30;;
19537;SDS011;9914;51.008;4.300;2022-09-13T05:41:49;5.77;;;4.90;;
19537;SDS011;9914;51.008;4.300;2022-09-13T05:44:14;7.87;;;5.27;;
19537;SDS011;9914;51.008;4.300;2022-09-13T05:46:41;6.53;;;5.33;;
19537;SDS011;9914;51.008;4.300;2022-09-13T05:49:10;7.73;;;4.77;;
19537;SDS011;9914;51.008;4.300;2022-09-13T05:51:37;5.37;;;4.90;;
19537;SDS011;9914;51.008;4.300;2022-09-13T05:54:03;5.33;;;4.83;;
19537;SDS011;9914;51.008;4.300;2022-09-13T05:56:29;6.07;;;5.00;;
19537;SDS011;9914;51.008;4.300;2022-09-13T05:58:56;10.33;;;5.37;;
19537;SDS011;9914;51.008;4.300;2022-09-13T06:01:23;5.20;;;4.70;;
19537;SDS011;9914;51.008;4.300;2022-09-13T06:03:51;5.70;;;4.07;;
19537;SDS011;9914;51.008;4.300;2022-09-13T06:06:19;6.80;;;5.30;;
19537;SDS011;9914;51.008;4.300;2022-09-13T06:08:46;5.43;;;4.67;;
19537;SDS011;9914;51.008;4.300;2022-09-13T06:11:13;9.00;;;4.70;;
19537;SDS011;9914;51.008;4.300;2022-09-13T06:13:40;5.97;;;4.57;;
19537;SDS011;9914;51.008;4.300;2022-09-13T06:16:10;7.87;;;4.70;;
19537;SDS011;9914;51.008;4.300;2022-09-13T06:18:37;8.73;;;4.93;;
19537;SDS011;9914;51.008;4.300;2022-09-13T06:21:07;7.23;;;4.83;;
19537;SDS011;9914;51.008;4.300;2022-09-13T06:23:34;9.60;;;4.77;;
19537;SDS011;9914;51.008;4.300;2022-09-13T06:26:07;7.37;;;4.50;;
19537;SDS011;9914;51.008;4.300;2022-09-13T06:28:35;6.87;;;4.93;;
19537;SDS011;9914;51.008;4.300;2022-09-13T06:31:05;6.90;;;4.50;;
19537;SDS011;9914;51.008;4.300;2022-09-13T06:33:31;6.33;;;4.77;;
19537;SDS011;9914;51.008;4.300;2022-09-13T06:36:00;8.23;;;4.40;;
19537;SDS011;9914;51.008;4.300;2022-09-13T06:38:31;5.23;;;3.90;;
19537;SDS011;9914;51.008;4.300;2022-09-13T06:43:36;7.10;;;4.20;;
19537;SDS011;9914;51.008;4.300;2022-09-13T06:46:03;7.30;;;4.73;;
19537;SDS011;9914;51.008;4.300;2022-09-13T06:48:31;5.27;;;4.20;;
19537;SDS011;9914;51.008;4.300;2022-09-13T06:50:58;4.80;;;4.27;;
19537;SDS011;9914;51.008;4.300;2022-09-13T06:53:25;5.33;;;4.70;;
19537;SDS011;9914;51.008;4.300;2022-09-13T06:58:54;13.63;;;4.80;;
19537;SDS011;9914;51.008;4.300;2022-09-13T07:01:28;7.27;;;5.03;;
19537;SDS011;9914;51.008;4.300;2022-09-13T07:03:59;4.93;;;4.40;;
19537;SDS011;9914;51.008;4.300;2022-09-13T07:06:27;5.20;;;4.50;;
19537;SDS011;9914;51.008;4.300;2022-09-13T07:08:55;7.57;;;4.40;;
19537;SDS011;9914;51.008;4.300;2022-09-13T07:11:22;9.07;;;4.37;;
19537;SDS011;9914;51.008;4.300;2022-09-13T07:13:51;7.27;;;4.83;;
19537;SDS011;9914;51.008;4.300;2022-09-13T07:16:18;5.77;;;4.87;;
19537;SDS011;9914;51.008;4.300;2022-09-13T07:18:52;5.00;;;4.50;;
19537;SDS011;9914;51.008;4.300;2022-09-13T07:21:23;8.70;;;4.77;;
19537;SDS011;9914;51.008;4.300;2022-09-13T07:23:50;9.70;;;5.00;;
19537;SDS011;9914;51.008;4.300;2022-09-13T07:26:16;12.90;;;10.10;;
19537;SDS011;9914;51.008;4.300;2022-09-13T07:28:43;11.20;;;9.00;;
19537;SDS011;9914;51.008;4.300;2022-09-13T07:31:31;14.43;;;7.47;;
19537;SDS011;9914;51.008;4.300;2022-09-13T07:34:00;11.37;;;7.63;;
19537;SDS011;9914;51.008;4.300;2022-09-13T07:36:27;8.60;;;5.80;;
19537;SDS011;9914;51.008;4.300;2022-09-13T07:38:55;6.23;;;5.63;;
19537;SDS011;9914;51.008;4.300;2022-09-13T07:41:22;7.10;;;5.20;;
19537;SDS011;9914;51.008;4.300;2022-09-13T07:43:48;7.73;;;6.00;;
19537;SDS011;9914;51.008;4.300;2022-09-13T07:46:16;9.70;;;6.00;;
19537;SDS011;9914;51.008;4.300;2022-09-13T07:48:44;7.33;;;5.70;;
19537;SDS011;9914;51.008;4.300;2022-09-13T07:51:11;9.03;;;5.23;;
19537;SDS011;9914;51.008;4.300;2022-09-13T07:53:39;9.20;;;6.50;;
19537;SDS011;9914;51.008;4.300;2022-09-13T07:56:07;7.10;;;6.07;;
19537;SDS011;9914;51.008;4.300;2022-09-13T07:58:35;8.37;;;6.33;;
19537;SDS011;9914;51.008;4.300;2022-09-13T08:01:10;9.10;;;6.20;;
19537;SDS011;9914;51.008;4.300;2022-09-13T08:03:36;11.50;;;7.43;;
19537;SDS011;9914;51.008;4.300;2022-09-13T08:06:02;11.00;;;6.47;;
19537;SDS011;9914;51.008;4.300;2022-09-13T08:08:29;8.80;;;7.17;;
19537;SDS011;9914;51.008;4.300;2022-09-13T08:10:55;10.23;;;7.40;;
19537;SDS011;9914;51.008;4.300;2022-09-13T08:13:21;11.43;;;7.13;;
19537;SDS011;9914;51.008;4.300;2022-09-13T08:15:47;11.27;;;7.57;;
19537;SDS011;9914;51.008;4.300;2022-09-13T08:18:14;12.13;;;7.60;;
19537;SDS011;9914;51.008;4.300;2022-09-13T08:20:43;12.47;;;8.90;;
19537;SDS011;9914;51.008;4.300;2022-09-13T08:23:09;10.40;;;8.80;;
19537;SDS011;9914;51.008;4.300;2022-09-13T08:25:36;10.17;;;7.87;;
19537;SDS011;9914;51.008;4.300;2022-09-13T08:28:13;9.97;;;7.93;;
19537;SDS011;9914;51.008;4.300;2022-09-13T08:30:40;11.97;;;8.50;;
19537;SDS011;9914;51.008;4.300;2022-09-13T08:33:08;10.70;;;8.80;;
19537;SDS011;9914;51.008;4.300;2022-09-13T08:35:35;12.57;;;8.57;;
19537;SDS011;9914;51.008;4.300;2022-09-13T08:38:02;12.87;;;10.03;;
19537;SDS011;9914;51.008;4.300;2022-09-13T08:40:48;11.17;;;9.07;;
19537;SDS011;9914;51.008;4.300;2022-09-13T08:43:23;10.93;;;9.73;;
19537;SDS011;9914;51.008;4.300;2022-09-13T08:46:00;11.43;;;9.23;;
19537;SDS011;9914;51.008;4.300;2022-09-13T08:48:34;13.80;;;9.03;;
19537;SDS011;9914;51.008;4.300;2022-09-13T08:51:04;8.37;;;7.10;;
19537;SDS011;9914;51.008;4.300;2022-09-13T08:53:42;8.13;;;7.33;;
19537;SDS011;9914;51.008;4.300;2022-09-13T09:10:04;7.77;;;5.53;;
19537;SDS011;9914;51.008;4.300;2022-09-13T09:12:54;8.20;;;5.80;;
19537;SDS011;9914;51.008;4.300;2022-09-13T09:15:33;8.63;;;6.67;;
19537;SDS011;9914;51.008;4.300;2022-09-13T09:18:05;8.80;;;7.13;;
19537;SDS011;9914;51.008;4.300;2022-09-13T09:20:57;13.40;;;7.73;;
19537;SDS011;9914;51.008;4.300;2022-09-13T09:23:38;9.77;;;7.70;;
19537;SDS011;9914;51.008;4.300;2022-09-13T09:26:17;8.13;;;7.37;;
19537;SDS011;9914;51.008;4.300;2022-09-13T09:28:49;10.80;;;7.40;;
19537;SDS011;9914;51.008;4.300;2022-09-13T09:31:19;11.30;;;7.03;;
19537;SDS011;9914;51.008;4.300;2022-09-13T09:36:43;11.73;;;7.30;;
19537;SDS011;9914;51.008;4.300;2022-09-13T09:39:19;11.00;;;7.40;;
19537;SDS011;9914;51.008;4.300;2022-09-13T09:41:45;8.17;;;6.37;;
19537;SDS011;9914;51.008;4.300;2022-09-13T09:47:06;7.37;;;6.07;;
19537;SDS011;9914;51.008;4.300;2022-09-13T09:49:39;9.03;;;6.80;;
19537;SDS011;9914;51.008;4.300;2022-09-13T09:52:43;10.27;;;7.57;;
19537;SDS011;9914;51.008;4.300;2022-09-13T09:55:24;10.23;;;6.37;;
19537;SDS011;9914;51.008;4.300;2022-09-13T09:57:56;11.70;;;6.07;;
19537;SDS011;9914;51.008;4.300;2022-09-13T10:00:36;9.63;;;6.10;;
19537;SDS011;9914;51.008;4.300;2022-09-13T10:03:19;8.07;;;6.73;;
19537;SDS011;9914;51.008;4.300;2022-09-13T10:05:49;8.03;;;6.27;;
19537;SDS011;9914;51.008;4.300;2022-09-13T10:08:27;7.50;;;5.03;;
19537;SDS011;9914;51.008;4.300;2022-09-13T10:10:57;11.53;;;5.97;;
19537;SDS011;9914;51.008;4.300;2022-09-13T10:13:24;6.13;;;5.00;;
19537;SDS011;9914;51.008;4.300;2022-09-13T10:15:57;5.37;;;4.83;;
19537;SDS011;9914;51.008;4.300;2022-09-13T10:18:35;6.80;;;5.30;;
19537;SDS011;9914;51.008;4.300;2022-09-13T10:21:05;9.20;;;5.77;;
19537;SDS011;9914;51.008;4.300;2022-09-13T10:23:42;6.63;;;5.27;;
19537;SDS011;9914;51.008;4.300;2022-09-13T10:26:23;7.47;;;5.40;;
19537;SDS011;9914;51.008;4.300;2022-09-13T10:28:53;7.77;;;5.60;;
19537;SDS011;9914;51.008;4.300;2022-09-13T10:31:39;6.63;;;5.23;;
19537;SDS011;9914;51.008;4.300;2022-09-13T10:34:12;8.90;;;5.20;;
19537;SDS011;9914;51.008;4.300;2022-09-13T10:39:30;5.93;;;5.30;;
19537;SDS011;9914;51.008;4.300;2022-09-13T10:44:27;5.07;;;4.57;;
19537;SDS011;9914;51.008;4.300;2022-09-13T10:47:26;7.10;;;5.00;;
19537;SDS011;9914;51.008;4.300;2022-09-13T10:50:24;6.37;;;4.90;;
19537;SDS011;9914;51.008;4.300;2022-09-13T10:52:55;5.90;;;4.00;;
19537;SDS011;9914;51.008;4.300;2022-09-13T11:00:27;7.87;;;5.00;;
19537;SDS011;9914;51.008;4.300;2022-09-13T11:03:23;6.27;;;4.67;;
19537;SDS011;9914;51.008;4.300;2022-09-13T11:27:58;8.00;;;5.30;;
19537;SDS011;9914;51.008;4.300;2022-09-13T11:30:30;5.40;;;4.90;;
19537;SDS011;9914;51.008;4.300;2022-09-13T11:38:25;8.20;;;5.47;;
19537;SDS011;9914;51.008;4.300;2022-09-13T11:47:05;6.47;;;5.57;;
19537;SDS011;9914;51.008;4.300;2022-09-13T11:57:51;7.07;;;4.90;;
19537;SDS011;9914;51.008;4.300;2022-09-13T12:05:29;3.07;;;2.77;;
19537;SDS011;9914;51.008;4.300;2022-09-13T12:08:04;3.97;;;3.50;;
19537;SDS011;9914;51.008;4.300;2022-09-13T12:10:38;5.23;;;3.60;;
19537;SDS011;9914;51.008;4.300;2022-09-13T12:13:18;4.80;;;3.43;;
19537;SDS011;9914;51.008;4.300;2022-09-13T12:15:48;4.90;;;3.20;;
19537;SDS011;9914;51.008;4.300;2022-09-13T12:18:20;5.13;;;3.90;;
19537;SDS011;9914;51.008;4.300;2022-09-13T12:20:55;3.47;;;3.17;;
19537;SDS011;9914;51.008;4.300;2022-09-13T12:32:01;5.30;;;3.27;;
19537;SDS011;9914;51.008;4.300;2022-09-13T12:34:52;5.20;;;3.53;;
19537;SDS011;9914;51.008;4.300;2022-09-13T12:37:48;5.90;;;3.20;;
19537;SDS011;9914;51.008;4.300;2022-09-13T12:40:37;4.00;;;2.97;;
19537;SDS011;9914;51.008;4.300;2022-09-13T13:05:26;7.67;;;5.87;;
19537;SDS011;9914;51.008;4.300;2022-09-13T13:07:59;6.50;;;4.93;;
19537;SDS011;9914;51.008;4.300;2022-09-13T13:13:36;7.20;;;4.87;;
19537;SDS011;9914;51.008;4.300;2022-09-13T13:19:03;6.20;;;4.50;;
19537;SDS011;9914;51.008;4.300;2022-09-13T13:21:49;8.57;;;5.00;;
19537;SDS011;9914;51.008;4.300;2022-09-13T13:26:45;5.93;;;4.40;;
19537;SDS011;9914;51.008;4.300;2022-09-13T13:39:44;6.80;;;5.40;;
19537;SDS011;9914;51.008;4.300;2022-09-13T13:45:27;7.47;;;5.87;;
19537;SDS011;9914;51.008;4.300;2022-09-13T13:48:05;6.47;;;5.77;;
19537;SDS011;9914;51.008;4.300;2022-09-13T13:50:33;10.37;;;5.63;;
19537;SDS011;9914;51.008;4.300;2022-09-13T13:53:13;7.83;;;5.03;;
19537;SDS011;9914;51.008;4.300;2022-09-13T13:55:45;9.60;;;6.43;;
19537;SDS011;9914;51.008;4.300;2022-09-13T14:00:58;6.90;;;6.27;;
19537;SDS011;9914;51.008;4.300;2022-09-13T14:06:09;8.63;;;7.37;;
19537;SDS011;9914;51.008;4.300;2022-09-13T14:19:41;14.43;;;7.80;;
19537;SDS011;9914;51.008;4.300;2022-09-13T14:22:18;10.40;;;6.27;;
19537;SDS011;9914;51.008;4.300;2022-09-13T14:24:51;10.43;;;6.20;;
19537;SDS011;9914;51.008;4.300;2022-09-13T14:27:22;6.80;;;5.90;;
19537;SDS011;9914;51.008;4.300;2022-09-13T14:30:00;11.30;;;7.20;;
19537;SDS011;9914;51.008;4.300;2022-09-13T14:32:38;10.63;;;7.33;;
19537;SDS011;9914;51.008;4.300;2022-09-13T14:37:51;13.50;;;8.23;;
19537;SDS011;9914;51.008;4.300;2022-09-13T14:40:26;9.70;;;6.87;;
19537;SDS011;9914;51.008;4.300;2022-09-13T14:42:53;8.43;;;6.80;;
19537;SDS011;9914;51.008;4.300;2022-09-13T14:50:29;11.17;;;6.83;;
19537;SDS011;9914;51.008;4.300;2022-09-13T14:53:02;10.83;;;6.93;;
19537;SDS011;9914;51.008;4.300;2022-09-13T14:55:32;12.00;;;8.20;;
19537;SDS011;9914;51.008;4.300;2022-09-13T14:58:03;9.67;;;7.67;;
19537;SDS011;9914;51.008;4.300;2022-09-13T15:00:32;10.43;;;6.97;;
19537;SDS011;9914;51.008;4.300;2022-09-13T15:03:01;10.63;;;9.50;;
19537;SDS011;9914;51.008;4.300;2022-09-13T15:05:34;10.60;;;9.07;;
19537;SDS011;9914;51.008;4.300;2022-09-13T15:08:21;9.70;;;8.53;;
19537;SDS011;9914;51.008;4.300;2022-09-13T15:11:10;11.47;;;9.50;;
19537;SDS011;9914;51.008;4.300;2022-09-13T15:13:59;15.73;;;9.60;;
19537;SDS011;9914;51.008;4.300;2022-09-13T15:16:29;12.57;;;9.30;;
19537;SDS011;9914;51.008;4.300;2022-09-13T15:22:04;10.73;;;8.73;;
19537;SDS011;9914;51.008;4.300;2022-09-13T15:24:43;12.47;;;8.47;;
19537;SDS011;9914;51.008;4.300;2022-09-13T15:27:53;11.67;;;10.40;;
19537;SDS011;9914;51.008;4.300;2022-09-13T15:30:18;16.40;;;11.53;;
19537;SDS011;9914;51.008;4.300;2022-09-13T15:32:48;12.27;;;10.13;;
19537;SDS011;9914;51.008;4.300;2022-09-13T15:35:28;18.23;;;13.20;;
19537;SDS011;9914;51.008;4.300;2022-09-13T15:37:59;32.73;;;28.30;;
19537;SDS011;9914;51.008;4.300;2022-09-13T15:40:27;30.20;;;21.60;;
19537;SDS011;9914;51.008;4.300;2022-09-13T15:42:54;63.77;;;49.47;;
19537;SDS011;9914;51.008;4.300;2022-09-13T15:45:20;16.27;;;13.30;;
19537;SDS011;9914;51.008;4.300;2022-09-13T15:47:47;15.07;;;13.47;;
19537;SDS011;9914;51.008;4.300;2022-09-13T15:50:24;19.23;;;16.73;;
19537;SDS011;9914;51.008;4.300;2022-09-13T15:52:57;19.07;;;16.73;;
19537;SDS011;9914;51.008;4.300;2022-09-13T15:55:27;20.67;;;12.57;;
19537;SDS011;9914;51.008;4.300;2022-09-13T15:57:54;17.73;;;12.33;;
19537;SDS011;9914;51.008;4.300;2022-09-13T16:00:24;15.67;;;12.13;;
19537;SDS011;9914;51.008;4.300;2022-09-13T16:02:51;20.80;;;12.67;;
19537;SDS011;9914;51.008;4.300;2022-09-13T16:05:17;16.57;;;12.63;;
19537;SDS011;9914;51.008;4.300;2022-09-13T16:07:44;17.77;;;13.27;;
19537;SDS011;9914;51.008;4.300;2022-09-13T16:10:11;13.00;;;11.40;;
19537;SDS011;9914;51.008;4.300;2022-09-13T16:12:42;15.30;;;11.57;;
19537;SDS011;9914;51.008;4.300;2022-09-13T16:15:08;18.67;;;13.50;;
19537;SDS011;9914;51.008;4.300;2022-09-13T16:17:34;17.77;;;12.40;;
19537;SDS011;9914;51.008;4.300;2022-09-13T16:20:00;19.70;;;12.03;;
19537;SDS011;9914;51.008;4.300;2022-09-13T16:22:25;19.87;;;12.93;;
19537;SDS011;9914;51.008;4.300;2022-09-13T16:24:51;15.67;;;12.13;;
19537;SDS011;9914;51.008;4.300;2022-09-13T16:27:17;15.73;;;11.47;;
19537;SDS011;9914;51.008;4.300;2022-09-13T16:29:44;14.17;;;10.63;;
19537;SDS011;9914;51.008;4.300;2022-09-13T16:32:10;13.37;;;10.17;;
19537;SDS011;9914;51.008;4.300;2022-09-13T16:34:36;15.53;;;10.47;;
19537;SDS011;9914;51.008;4.300;2022-09-13T16:37:01;16.00;;;12.37;;
19537;SDS011;9914;51.008;4.300;2022-09-13T16:39:27;40.27;;;33.23;;
19537;SDS011;9914;51.008;4.300;2022-09-13T16:41:53;65.13;;;54.57;;
19537;SDS011;9914;51.008;4.300;2022-09-13T16:44:19;166.53;;;139.83;;
19537;SDS011;9914;51.008;4.300;2022-09-13T16:46:45;281.97;;;208.70;;
19537;SDS011;9914;51.008;4.300;2022-09-13T16:49:11;375.67;;;279.30;;
19537;SDS011;9914;51.008;4.300;2022-09-13T16:51:36;478.07;;;329.03;;
19537;SDS011;9914;51.008;4.300;2022-09-13T16:54:02;601.70;;;366.40;;
19537;SDS011;9914;51.008;4.300;2022-09-13T16:56:28;527.43;;;377.20;;
19537;SDS011;9914;51.008;4.300;2022-09-13T16:58:54;319.00;;;241.43;;
19537;SDS011;9914;51.008;4.300;2022-09-13T17:01:21;357.57;;;277.57;;
19537;SDS011;9914;51.008;4.300;2022-09-13T17:03:48;333.20;;;256.03;;
19537;SDS011;9914;51.008;4.300;2022-09-13T17:06:15;339.93;;;273.10;;
19537;SDS011;9914;51.008;4.300;2022-09-13T17:08:45;311.57;;;249.83;;
19537;SDS011;9914;51.008;4.300;2022-09-13T17:11:13;193.17;;;167.77;;
19537;SDS011;9914;51.008;4.300;2022-09-13T17:13:40;135.63;;;118.23;;
19537;SDS011;9914;51.008;4.300;2022-09-13T17:16:15;205.10;;;182.50;;
19537;SDS011;9914;51.008;4.300;2022-09-13T17:18:51;221.87;;;181.83;;
19537;SDS011;9914;51.008;4.300;2022-09-13T17:21:17;267.90;;;230.73;;
19537;SDS011;9914;51.008;4.300;2022-09-13T17:23:43;1999.90;;;887.30;;
19537;SDS011;9914;51.008;4.300;2022-09-13T17:26:08;964.30;;;629.37;;
19537;SDS011;9914;51.008;4.300;2022-09-13T17:28:35;1328.43;;;780.10;;
19537;SDS011;9914;51.008;4.300;2022-09-13T17:31:00;1466.73;;;828.13;;
19537;SDS011;9914;51.008;4.300;2022-09-13T17:33:27;1923.50;;;914.20;;
19537;SDS011;9914;51.008;4.300;2022-09-13T17:35:59;1950.13;;;940.53;;
19537;SDS011;9914;51.008;4.300;2022-09-13T17:38:29;1896.67;;;915.43;;
19537;SDS011;9914;51.008;4.300;2022-09-13T17:40:58;1999.90;;;979.17;;
19537;SDS011;9914;51.008;4.300;2022-09-13T17:43:33;1999.90;;;940.87;;
19537;SDS011;9914;51.008;4.300;2022-09-13T17:46:05;1984.33;;;961.67;;
19537;SDS011;9914;51.008;4.300;2022-09-13T17:48:36;1999.90;;;945.13;;
19537;SDS011;9914;51.008;4.300;2022-09-13T17:51:03;1994.67;;;935.20;;
19537;SDS011;9914;51.008;4.300;2022-09-13T17:53:30;19.27;;;15.23;;
19537;SDS011;9914;51.008;4.300;2022-09-13T17:55:56;19.13;;;15.23;;
19537;SDS011;9914;51.008;4.300;2022-09-13T17:58:25;17.67;;;13.60;;
19537;SDS011;9914;51.008;4.300;2022-09-13T18:00:58;17.17;;;13.70;;
19537;SDS011;9914;51.008;4.300;2022-09-13T18:03:31;16.57;;;13.80;;
19537;SDS011;9914;51.008;4.300;2022-09-13T18:05:57;18.00;;;13.20;;
19537;SDS011;9914;51.008;4.300;2022-09-13T18:08:25;357.30;;;233.93;;
19537;SDS011;9914;51.008;4.300;2022-09-13T18:10:51;23.23;;;21.10;;
19537;SDS011;9914;51.008;4.300;2022-09-13T18:13:17;54.30;;;48.97;;
19537;SDS011;9914;51.008;4.300;2022-09-13T18:15:43;89.20;;;79.97;;
19537;SDS011;9914;51.008;4.300;2022-09-13T18:18:10;166.37;;;149.03;;
19537;SDS011;9914;51.008;4.300;2022-09-13T18:20:36;164.37;;;147.37;;
19537;SDS011;9914;51.008;4.300;2022-09-13T18:23:02;210.97;;;189.57;;
19537;SDS011;9914;51.008;4.300;2022-09-13T18:25:28;159.13;;;142.93;;
19537;SDS011;9914;51.008;4.300;2022-09-13T18:27:53;152.83;;;136.77;;
19537;SDS011;9914;51.008;4.300;2022-09-13T18:30:19;104.07;;;93.93;;
19537;SDS011;9914;51.008;4.300;2022-09-13T18:32:45;135.77;;;122.67;;
19537;SDS011;9914;51.008;4.300;2022-09-13T18:35:10;120.57;;;108.60;;
19537;SDS011;9914;51.008;4.300;2022-09-13T18:37:36;85.77;;;77.57;;
19537;SDS011;9914;51.008;4.300;2022-09-13T18:40:02;149.13;;;133.87;;
19537;SDS011;9914;51.008;4.300;2022-09-13T18:42:28;121.50;;;110.70;;
19537;SDS011;9914;51.008;4.300;2022-09-13T18:44:53;113.90;;;103.70;;
19537;SDS011;9914;51.008;4.300;2022-09-13T18:47:19;127.30;;;114.73;;
19537;SDS011;9914;51.008;4.300;2022-09-13T18:49:44;137.27;;;123.47;;
19537;SDS011;9914;51.008;4.300;2022-09-13T18:52:10;146.43;;;132.13;;
19537;SDS011;9914;51.008;4.300;2022-09-13T18:54:36;152.57;;;137.40;;